Strona główna
METAR-TAF:

METAR-TAF

Lotnisko :

Port lotniczy Harbin-Taiping

Harbin, Chiny

Szerokość geograficzna: 45-45N, Długość geograficzna: 126-46E, wysokość: 143 m

Aktualna obserwacja pogody

Raport powstał 14 minut temu, godzina 09:00 UTC
Wiatr 4 kt od zachodnio-północny zachód, zmienny między zachodnio-południowy zachód i północno-północny zachód
Temperatura 30°C
Wilgotność 43%
Ciśnienie 1006 hPa
Widzialność 10 km lub więcej
Brak chmur poniżej 1500 m i brak chmur cumulonimbus

METAR: ZYHB 190900Z 30002MPS 250V330 CAVOK 30/16 Q1006 NOSIG

czas: 17:14 (09:14 UTC)

Prognoza

Raport powstał 6 godziny i 4 minut temu, godzina 03:10 UTC
Prognoza ważna od 19 godzina 06 UTC do 20 godzina 06 UTC
Wiatr 12 kt od południowo-południowy zachód w porywach dochodzący do 23 kt
Widzialność 10 km lub więcej
Brak chmur poniżej 1500 m i brak chmur cumulonimbus

TAF: ZYHB 190310Z 1906/2006 21006G12MPS CAVOK TX30/1906Z TN18/1921Z

Obserwacja i prognoza pogody dla ponad 4000 lotnisk (raport METAR i TAF).

Dostępne stacje oznaczono żółtymi i czerwonymi punktami na mapie.

Najedź kursorem aby zobaczyć nazwę stacji.

Kliknij aby zobaczyć obserwacje i prognozy pogody.

Aby zmienić mapę: kliknij na zielony przycisk z czarnym krzyżykiem, aby powiększyć; na zielony przycisk z myślnikiem, aby pomniejszyć; na zielone strzałki, aby przejść do map sąsiednich.


METAR-TAF: